createdAt,value
2022-10-22T00:02:27.680Z,5.35
2022-10-22T00:04:57.072Z,6.70
2022-10-22T00:07:24.720Z,2.47
2022-10-22T00:09:51.592Z,4.60
2022-10-22T00:12:18.685Z,2.63
2022-10-22T00:14:45.873Z,3.60
2022-10-22T00:17:12.588Z,2.65
2022-10-22T00:19:40.699Z,6.35
2022-10-22T00:22:07.758Z,2.45
2022-10-22T00:24:35.631Z,2.75
2022-10-22T00:27:03.156Z,2.08
2022-10-22T00:29:31.316Z,2.58
2022-10-22T00:31:58.335Z,8.65
2022-10-22T00:34:25.794Z,5.10
2022-10-22T00:36:54.316Z,2.25
2022-10-22T00:39:23.831Z,2.53
2022-10-22T00:41:52.185Z,3.88
2022-10-22T00:44:56.776Z,5.35
2022-10-22T00:47:25.319Z,2.30
2022-10-22T00:49:53.821Z,4.28
2022-10-22T00:52:22.937Z,2.90
2022-10-22T00:54:50.917Z,3.45
2022-10-22T00:57:19.611Z,4.22
2022-10-22T00:59:47.064Z,2.75
2022-10-22T01:02:14.135Z,3.45
2022-10-22T01:04:40.791Z,2.75
2022-10-22T01:07:07.513Z,3.03
2022-10-22T01:09:50.135Z,4.07
2022-10-22T01:12:23.207Z,2.97
2022-10-22T01:15:07.765Z,8.60
2022-10-22T01:17:39.712Z,4.70
2022-10-22T01:20:18.427Z,5.45
2022-10-22T01:22:59.206Z,5.00
2022-10-22T01:25:34.158Z,4.32
2022-10-22T01:28:09.484Z,5.18
2022-10-22T01:30:39.736Z,1.40
2022-10-22T01:33:10.374Z,6.53
2022-10-22T01:35:42.883Z,5.05
2022-10-22T01:38:13.007Z,4.40
2022-10-22T01:40:41.636Z,4.13
2022-10-22T01:43:10.325Z,4.88
2022-10-22T01:45:42.439Z,6.22
2022-10-22T01:48:22.091Z,4.15
2022-10-22T01:51:02.096Z,2.92
2022-10-22T01:53:34.386Z,4.10
2022-10-22T01:56:29.577Z,5.03
2022-10-22T01:59:03.658Z,4.68
2022-10-22T02:01:41.367Z,4.10
2022-10-22T02:04:15.715Z,3.72
2022-10-22T02:06:44.484Z,7.45
2022-10-22T02:09:14.764Z,2.92
2022-10-22T02:11:42.853Z,1.58
2022-10-22T02:14:12.634Z,4.45
2022-10-22T02:16:43.873Z,7.78
2022-10-22T02:19:16.925Z,3.20
2022-10-22T02:21:44.583Z,6.18
2022-10-22T02:24:11.301Z,5.88
2022-10-22T02:26:41.848Z,6.65
2022-10-22T02:29:14.352Z,3.85
2022-10-22T02:31:46.127Z,2.95
2022-10-22T02:34:19.349Z,2.70
2022-10-22T02:36:49.712Z,4.95
2022-10-22T02:39:19.121Z,3.72
2022-10-22T02:41:45.747Z,3.15
2022-10-22T02:44:12.561Z,3.70
2022-10-22T02:46:40.526Z,4.85
2022-10-22T02:49:08.583Z,2.30
2022-10-22T02:51:35.351Z,2.13
2022-10-22T02:54:02.027Z,3.45
2022-10-22T02:56:29.077Z,2.20
2022-10-22T02:58:55.711Z,1.77
2022-10-22T03:01:22.692Z,1.70
2022-10-22T03:03:49.505Z,1.95
2022-10-22T03:06:18.040Z,2.83
2022-10-22T03:08:44.764Z,1.13
2022-10-22T03:11:11.525Z,0.80
2022-10-22T03:13:38.187Z,1.73
2022-10-22T03:16:05.543Z,1.73
2022-10-22T03:18:32.283Z,1.45
2022-10-22T03:21:07.794Z,0.82
2022-10-22T03:26:03.679Z,5.55
2022-10-22T03:28:30.402Z,1.63
2022-10-22T03:30:57.017Z,1.05
2022-10-22T03:33:23.734Z,1.25
2022-10-22T03:35:50.486Z,0.80
2022-10-22T03:38:17.342Z,2.55
2022-10-22T03:40:46.179Z,1.05
2022-10-22T03:43:13.071Z,2.28
2022-10-22T03:45:39.716Z,1.42
2022-10-22T03:48:06.498Z,1.88
2022-10-22T03:50:33.259Z,1.85
2022-10-22T03:52:59.975Z,4.68
2022-10-22T03:55:26.901Z,1.88
2022-10-22T03:57:54.897Z,1.48
2022-10-22T04:00:21.698Z,1.50
2022-10-22T04:02:48.311Z,2.10
2022-10-22T04:07:46.567Z,1.85
2022-10-22T04:10:13.261Z,3.40
2022-10-22T04:12:39.918Z,2.25
2022-10-22T04:15:09.586Z,2.55
2022-10-22T04:17:37.125Z,3.65
2022-10-22T04:20:05.126Z,2.90
2022-10-22T04:22:33.521Z,2.90
2022-10-22T04:25:00.317Z,1.17
2022-10-22T04:27:29.887Z,2.30
2022-10-22T04:29:56.639Z,1.55
2022-10-22T04:32:24.767Z,5.30
2022-10-22T04:34:51.391Z,2.20
2022-10-22T04:37:18.089Z,8.90
2022-10-22T04:39:44.831Z,2.72
2022-10-22T04:42:12.563Z,1.08
2022-10-22T04:44:39.277Z,1.00
2022-10-22T04:47:06.000Z,1.77
2022-10-22T04:49:34.086Z,0.63
2022-10-22T04:52:00.749Z,1.80
2022-10-22T04:54:30.512Z,0.88
2022-10-22T04:56:59.907Z,1.17
2022-10-22T04:59:26.656Z,3.08
2022-10-22T05:01:53.331Z,1.15
2022-10-22T05:04:19.975Z,3.33
2022-10-22T05:06:48.062Z,1.60
2022-10-22T05:09:17.264Z,2.22
2022-10-22T05:11:46.248Z,2.33
2022-10-22T05:14:13.266Z,1.05
2022-10-22T05:16:40.084Z,1.10
2022-10-22T05:19:07.739Z,1.75
2022-10-22T05:21:34.941Z,0.85
2022-10-22T05:24:04.005Z,1.52
2022-10-22T05:28:57.381Z,3.17
2022-10-22T05:31:24.184Z,2.28
2022-10-22T05:33:50.943Z,0.85
2022-10-22T05:36:19.450Z,1.50
2022-10-22T05:38:46.418Z,0.98
2022-10-22T05:41:16.280Z,1.98
2022-10-22T05:43:43.328Z,1.83
2022-10-22T05:46:11.835Z,1.80
2022-10-22T05:48:39.217Z,4.88
2022-10-22T05:51:07.581Z,1.83
2022-10-22T05:53:35.944Z,2.30
2022-10-22T05:56:04.455Z,2.35
2022-10-22T05:58:32.941Z,3.33
2022-10-22T06:01:03.631Z,4.82
2022-10-22T06:03:31.783Z,0.93
2022-10-22T06:06:01.637Z,2.03
2022-10-22T06:08:28.926Z,3.13
2022-10-22T06:10:55.644Z,3.83
2022-10-22T06:13:22.905Z,2.33
2022-10-22T06:15:53.446Z,3.42
2022-10-22T06:18:20.423Z,4.28
2022-10-22T06:20:47.649Z,4.82
2022-10-22T06:23:15.255Z,3.17
2022-10-22T06:25:42.005Z,1.80
2022-10-22T06:28:08.685Z,1.98
2022-10-22T06:30:37.261Z,2.50
2022-10-22T06:33:05.403Z,2.92
2022-10-22T06:35:33.311Z,0.98
2022-10-22T06:37:59.998Z,3.20
2022-10-22T06:40:26.789Z,1.73
2022-10-22T06:42:53.493Z,1.45
2022-10-22T06:45:20.285Z,1.17
2022-10-22T06:47:47.657Z,2.50
2022-10-22T06:50:15.933Z,1.52
2022-10-22T06:52:42.597Z,2.95
2022-10-22T06:55:10.297Z,2.85
2022-10-22T06:57:38.207Z,3.15
2022-10-22T07:00:07.084Z,2.05
2022-10-22T07:02:33.768Z,2.30
2022-10-22T07:05:00.557Z,3.10
2022-10-22T07:07:28.679Z,1.13
2022-10-22T07:09:55.337Z,1.75
2022-10-22T07:12:22.212Z,1.65
2022-10-22T07:14:49.052Z,3.25
2022-10-22T07:17:15.785Z,2.15
2022-10-22T07:19:42.482Z,2.55
2022-10-22T07:25:11.335Z,2.42
2022-10-22T07:27:46.034Z,2.15
2022-10-22T07:30:15.147Z,3.03
2022-10-22T07:44:02.239Z,3.88
2022-10-22T07:49:10.313Z,2.08
2022-10-22T07:54:29.645Z,8.73
2022-10-22T07:56:57.552Z,23.83
2022-10-22T07:59:35.086Z,6.38
2022-10-22T08:02:01.997Z,33.15
2022-10-22T08:04:32.769Z,9.07
2022-10-22T08:07:01.035Z,5.50
2022-10-22T08:09:28.106Z,3.35
2022-10-22T08:11:54.980Z,6.65
2022-10-22T08:14:22.285Z,3.60
2022-10-22T08:16:50.584Z,8.10
2022-10-22T08:19:21.287Z,10.15
2022-10-22T08:21:48.611Z,42.80
2022-10-22T08:24:15.475Z,18.85
2022-10-22T08:26:42.738Z,32.63
2022-10-22T08:29:09.842Z,6.70
2022-10-22T08:31:37.221Z,7.07
2022-10-22T08:34:07.440Z,8.73
2022-10-22T08:36:36.276Z,18.92
2022-10-22T08:39:03.209Z,16.63
2022-10-22T08:47:40.560Z,21.98
2022-10-22T08:50:12.010Z,34.97
2022-10-22T08:52:45.781Z,10.00
2022-10-22T08:55:14.407Z,12.93
2022-10-22T08:57:52.302Z,9.18
2022-10-22T09:00:22.004Z,5.00
2022-10-22T09:03:04.091Z,6.78
2022-10-22T09:05:44.200Z,4.78
2022-10-22T09:08:13.846Z,10.68
2022-10-22T09:10:46.362Z,11.05
2022-10-22T09:16:19.298Z,5.18
2022-10-22T09:18:58.945Z,5.60
2022-10-22T09:21:33.222Z,2.97
2022-10-22T09:24:05.577Z,2.95
2022-10-22T09:26:36.237Z,17.95
2022-10-22T09:29:03.844Z,6.28
2022-10-22T09:31:32.061Z,3.90
2022-10-22T09:34:05.766Z,4.15
2022-10-22T09:36:34.496Z,2.20
2022-10-22T09:39:01.610Z,1.70
2022-10-22T09:41:30.137Z,2.13
2022-10-22T09:43:57.621Z,3.28
2022-10-22T09:46:28.003Z,1.95
2022-10-22T09:49:01.929Z,1.95
2022-10-22T09:51:46.305Z,2.30
2022-10-22T09:54:16.810Z,4.53
2022-10-22T09:56:52.030Z,1.55
2022-10-22T09:59:24.574Z,6.18
2022-10-22T10:02:08.373Z,7.10
2022-10-22T10:04:48.207Z,1.33
2022-10-22T10:07:18.499Z,5.25
2022-10-22T10:09:45.706Z,10.80
2022-10-22T10:12:24.763Z,1.67
2022-10-22T10:15:01.623Z,3.35
2022-10-22T10:17:36.402Z,0.73
2022-10-22T10:20:16.594Z,1.83
2022-10-22T10:22:55.034Z,2.15
2022-10-22T10:25:42.109Z,1.08
2022-10-22T10:28:27.862Z,1.80
2022-10-22T10:31:04.903Z,4.70
2022-10-22T10:33:42.628Z,2.83
2022-10-22T10:36:17.214Z,1.55
2022-10-22T10:38:57.493Z,4.13
2022-10-22T10:41:35.141Z,1.15
2022-10-22T10:44:18.245Z,1.40
2022-10-22T10:46:50.012Z,4.18
2022-10-22T10:49:20.465Z,3.30
2022-10-22T10:51:57.086Z,1.55
2022-10-22T10:54:41.228Z,3.50
2022-10-22T10:57:18.176Z,2.63
2022-10-22T11:00:02.739Z,2.85
2022-10-22T11:02:49.216Z,3.35
2022-10-22T11:05:30.680Z,2.08
2022-10-22T11:08:01.599Z,11.02
2022-10-22T11:10:34.406Z,10.02
2022-10-22T11:13:07.980Z,2.33
2022-10-22T11:15:37.909Z,4.70
2022-10-22T11:18:16.807Z,1.42
2022-10-22T11:21:04.608Z,0.93
2022-10-22T11:23:36.646Z,0.90
2022-10-22T11:29:01.730Z,2.20
2022-10-22T11:31:31.765Z,0.90
2022-10-22T11:34:28.520Z,2.60
2022-10-22T11:36:54.932Z,0.70
2022-10-22T11:39:31.990Z,1.13
2022-10-22T11:41:59.334Z,1.00
2022-10-22T11:44:30.359Z,8.35
2022-10-22T11:47:00.052Z,1.02
2022-10-22T11:52:41.777Z,3.22
2022-10-22T11:55:30.695Z,1.55
2022-10-22T11:58:03.777Z,2.08
2022-10-22T12:00:48.161Z,1.58
2022-10-22T12:03:19.658Z,2.03
2022-10-22T12:05:46.811Z,1.35
2022-10-22T12:11:28.004Z,3.20
2022-10-22T12:17:35.604Z,7.82
2022-10-22T12:22:55.756Z,2.00
2022-10-22T12:33:44.013Z,1.17
2022-10-22T12:36:17.029Z,2.30
2022-10-22T12:38:47.841Z,0.88
2022-10-22T12:41:15.490Z,1.27
2022-10-22T12:46:24.365Z,4.32
2022-10-22T12:48:53.695Z,3.38
2022-10-22T12:53:57.414Z,1.05
2022-10-22T12:56:47.014Z,0.98
2022-10-22T13:11:11.229Z,8.50
2022-10-22T13:17:21.804Z,2.03
2022-10-22T13:38:54.044Z,1.65
2022-10-22T13:53:34.765Z,4.82
2022-10-22T13:56:11.851Z,1.95
2022-10-22T13:58:38.913Z,1.02
2022-10-22T14:01:10.497Z,1.52
2022-10-22T14:03:38.251Z,3.13
2022-10-22T14:06:13.093Z,1.33
2022-10-22T14:08:40.339Z,1.80
2022-10-22T14:11:10.075Z,1.77
2022-10-22T14:13:42.521Z,4.72
2022-10-22T14:16:16.597Z,2.53
2022-10-22T14:18:43.922Z,3.83
2022-10-22T14:21:14.321Z,1.58
2022-10-22T14:23:45.025Z,1.92
2022-10-22T14:26:21.916Z,1.00
2022-10-22T14:29:08.689Z,1.48
2022-10-22T14:31:37.263Z,1.80
2022-10-22T14:36:48.506Z,2.10
2022-10-22T14:39:22.785Z,2.15
2022-10-22T14:41:52.020Z,2.55
2022-10-22T14:44:19.104Z,1.80
2022-10-22T14:46:46.976Z,1.42
2022-10-22T14:49:13.845Z,1.48
2022-10-22T14:51:42.536Z,2.45
2022-10-22T14:54:09.328Z,2.80
2022-10-22T14:56:47.073Z,2.50
2022-10-22T14:59:15.198Z,1.35
2022-10-22T15:01:43.098Z,2.25
2022-10-22T15:04:10.593Z,2.83
2022-10-22T15:06:37.958Z,4.90
2022-10-22T15:11:47.774Z,6.63
2022-10-22T15:17:10.102Z,2.63
2022-10-22T15:19:36.844Z,1.25
2022-10-22T15:22:08.253Z,2.55
2022-10-22T15:24:35.181Z,5.18
2022-10-22T15:27:03.630Z,1.50
2022-10-22T15:29:30.571Z,3.83
2022-10-22T15:31:59.302Z,5.80
2022-10-22T15:34:29.538Z,2.22
2022-10-22T15:36:58.519Z,8.60
2022-10-22T15:39:25.961Z,15.98
2022-10-22T15:41:55.652Z,3.35
2022-10-22T15:44:24.498Z,2.33
2022-10-22T15:49:19.224Z,3.70
2022-10-22T15:51:50.667Z,3.05
2022-10-22T15:54:19.783Z,3.20
2022-10-22T15:56:46.984Z,6.20
2022-10-22T15:59:15.950Z,4.13
2022-10-22T16:04:25.249Z,1.98
2022-10-22T16:06:55.547Z,1.58
2022-10-22T16:09:28.749Z,6.53
2022-10-22T16:11:55.856Z,7.63
2022-10-22T16:14:24.181Z,5.13
2022-10-22T16:16:53.310Z,4.05
2022-10-22T16:19:22.278Z,4.20
2022-10-22T16:21:50.849Z,6.18
2022-10-22T16:24:19.525Z,6.43
2022-10-22T16:26:46.519Z,8.38
2022-10-22T16:29:13.534Z,7.88
2022-10-22T16:31:42.756Z,3.33
2022-10-22T16:34:09.948Z,6.90
2022-10-22T16:36:37.253Z,8.98
2022-10-22T16:39:05.043Z,12.50
2022-10-22T16:41:35.055Z,12.55
2022-10-22T16:44:03.618Z,15.68
2022-10-22T16:46:31.224Z,16.52
2022-10-22T16:48:58.873Z,13.48
2022-10-22T16:51:27.257Z,14.32
2022-10-22T16:53:55.207Z,17.35
2022-10-22T16:56:22.193Z,16.48
2022-10-22T16:58:52.450Z,13.55
2022-10-22T17:01:20.738Z,8.73
2022-10-22T17:03:47.472Z,15.82
2022-10-22T17:06:14.792Z,13.93
2022-10-22T17:08:42.429Z,8.38
2022-10-22T17:11:10.989Z,5.97
2022-10-22T17:13:38.085Z,5.88
2022-10-22T17:16:08.883Z,7.30
2022-10-22T17:18:37.781Z,7.07
2022-10-22T17:21:04.707Z,5.00
2022-10-22T17:23:31.543Z,5.30
2022-10-22T17:25:59.780Z,8.82
2022-10-22T17:28:27.214Z,15.70
2022-10-22T17:31:02.584Z,8.07
2022-10-22T17:33:31.508Z,10.07
2022-10-22T17:35:59.182Z,7.70
2022-10-22T17:38:26.065Z,8.40
2022-10-22T17:40:52.825Z,9.20
2022-10-22T17:43:19.707Z,8.15
2022-10-22T17:45:46.389Z,8.18
2022-10-22T17:48:13.053Z,9.75
2022-10-22T17:50:42.776Z,8.88
2022-10-22T17:53:11.206Z,11.95
2022-10-22T17:55:37.809Z,9.30
2022-10-22T17:58:04.541Z,10.68
2022-10-22T18:00:33.283Z,7.25
2022-10-22T18:03:01.148Z,5.53
2022-10-22T18:05:28.101Z,9.18
2022-10-22T18:07:57.410Z,13.57
2022-10-22T18:10:24.608Z,9.95
2022-10-22T18:12:51.250Z,11.13
2022-10-22T18:15:17.935Z,6.65
2022-10-22T18:17:46.960Z,8.13
2022-10-22T18:22:42.159Z,9.52
2022-10-22T18:25:11.776Z,9.73
2022-10-22T18:27:38.965Z,8.50
2022-10-22T18:30:07.210Z,11.88
2022-10-22T18:32:34.106Z,9.27
2022-10-22T18:35:00.849Z,9.25
2022-10-22T18:37:27.705Z,11.73
2022-10-22T18:39:54.334Z,10.30
2022-10-22T18:42:22.401Z,9.20
2022-10-22T18:44:50.838Z,11.65
2022-10-22T18:47:17.491Z,13.55
2022-10-22T18:49:44.291Z,13.15
2022-10-22T18:52:11.602Z,14.55
2022-10-22T18:54:38.374Z,12.27
2022-10-22T18:57:05.212Z,11.68
2022-10-22T18:59:33.302Z,14.40
2022-10-22T19:02:00.334Z,13.00
2022-10-22T19:04:36.537Z,13.68
2022-10-22T19:07:03.243Z,14.48
2022-10-22T19:09:30.105Z,13.43
2022-10-22T19:11:56.802Z,16.15
2022-10-22T19:14:23.468Z,12.65
2022-10-22T19:16:51.849Z,14.77
2022-10-22T19:19:21.187Z,11.07
2022-10-22T19:21:48.692Z,12.40
2022-10-22T19:24:16.526Z,9.50
2022-10-22T19:26:43.645Z,11.20
2022-10-22T19:29:11.011Z,8.98
2022-10-22T19:31:38.144Z,10.38
2022-10-22T19:34:06.776Z,10.38
2022-10-22T19:36:34.438Z,9.23
2022-10-22T19:39:02.336Z,7.68
2022-10-22T19:41:31.381Z,11.77
2022-10-22T19:43:59.397Z,12.18
2022-10-22T19:46:28.253Z,11.25
2022-10-22T19:48:57.265Z,8.18
2022-10-22T19:51:27.524Z,6.93
2022-10-22T19:53:58.820Z,8.82
2022-10-22T19:56:25.614Z,5.47
2022-10-22T19:58:52.868Z,8.40
2022-10-22T20:01:20.236Z,7.72
2022-10-22T20:03:47.183Z,7.82
2022-10-22T20:06:15.025Z,4.68
2022-10-22T20:08:43.985Z,3.55
2022-10-22T20:16:11.897Z,5.28
2022-10-22T20:18:38.986Z,5.82
2022-10-22T20:21:06.794Z,5.18
2022-10-22T20:23:34.199Z,3.70
2022-10-22T20:26:02.457Z,3.85
2022-10-22T20:28:29.119Z,4.50
2022-10-22T20:30:56.016Z,3.42
2022-10-22T20:33:22.892Z,5.88
2022-10-22T20:35:58.305Z,8.40
2022-10-22T20:38:25.213Z,7.72
2022-10-22T20:40:59.891Z,6.45
2022-10-22T20:43:28.029Z,9.77
2022-10-22T20:45:54.946Z,8.63
2022-10-22T20:48:22.944Z,10.68
2022-10-22T20:50:49.679Z,8.48
2022-10-22T20:53:16.998Z,7.47
2022-10-22T20:55:43.821Z,12.25
2022-10-22T20:58:10.709Z,8.20
2022-10-22T21:00:39.869Z,8.05
2022-10-22T21:05:34.666Z,12.38
2022-10-22T21:08:02.384Z,6.93
2022-10-22T21:10:32.468Z,5.68
2022-10-22T21:13:00.307Z,5.93
2022-10-22T21:15:27.883Z,7.00
2022-10-22T21:17:56.056Z,5.65
2022-10-22T21:20:24.772Z,8.25
2022-10-22T21:22:51.861Z,7.07
2022-10-22T21:25:18.801Z,7.93
2022-10-22T21:27:45.530Z,8.15
2022-10-22T21:30:12.584Z,11.90
2022-10-22T21:32:39.443Z,10.48
2022-10-22T21:35:09.222Z,9.10
2022-10-22T21:37:36.012Z,8.57
2022-10-22T21:40:04.366Z,10.68
2022-10-22T21:42:31.191Z,9.07
2022-10-22T21:44:57.951Z,9.93
2022-10-22T21:47:24.889Z,8.40
2022-10-22T21:49:51.658Z,10.10
2022-10-22T21:52:19.840Z,9.98
2022-10-22T21:54:46.860Z,15.57
2022-10-22T21:57:13.793Z,10.68
2022-10-22T21:59:40.748Z,6.82
2022-10-22T22:02:09.480Z,8.98
2022-10-22T22:04:36.221Z,12.52
2022-10-22T22:07:03.475Z,9.68
2022-10-22T22:09:31.933Z,8.43
2022-10-22T22:11:58.589Z,9.38
2022-10-22T22:14:25.370Z,9.77
2022-10-22T22:16:52.441Z,7.18
2022-10-22T22:19:19.112Z,8.38
2022-10-22T22:21:45.916Z,8.55
2022-10-22T22:24:13.137Z,9.20
2022-10-22T22:26:41.398Z,5.75
2022-10-22T22:29:08.409Z,6.78
2022-10-22T22:31:37.267Z,4.88
2022-10-22T22:34:05.715Z,9.93
2022-10-22T22:36:34.052Z,7.32
2022-10-22T22:39:00.694Z,7.55
2022-10-22T22:41:27.381Z,6.18
2022-10-22T22:46:27.182Z,4.72
2022-10-22T22:48:54.519Z,6.15
2022-10-22T22:51:21.550Z,7.53
2022-10-22T22:53:48.271Z,5.10
2022-10-22T22:56:17.186Z,8.25
2022-10-22T22:58:44.486Z,6.40
2022-10-22T23:01:15.897Z,5.30
2022-10-22T23:03:44.234Z,5.13
2022-10-22T23:06:11.612Z,5.78
2022-10-22T23:08:39.575Z,7.22
2022-10-22T23:11:08.348Z,4.15
2022-10-22T23:13:36.127Z,4.40
2022-10-22T23:16:05.877Z,5.95
2022-10-22T23:18:35.310Z,5.60
2022-10-22T23:21:05.533Z,4.72
2022-10-22T23:23:33.434Z,6.50
2022-10-22T23:26:00.248Z,4.18
2022-10-22T23:28:27.186Z,3.88
2022-10-22T23:30:53.867Z,7.85
2022-10-22T23:33:20.569Z,4.10
2022-10-22T23:35:48.604Z,6.57
2022-10-22T23:38:15.318Z,8.48
2022-10-22T23:40:42.100Z,4.68
2022-10-22T23:43:08.733Z,5.28
2022-10-22T23:45:35.505Z,4.68
2022-10-22T23:48:02.416Z,4.63
2022-10-22T23:50:29.122Z,5.10
2022-10-22T23:52:57.150Z,8.15
2022-10-22T23:55:24.001Z,3.65
2022-10-22T23:57:50.728Z,4.55
